MSR800 LFPG-HECA
Flight info
| Callsign | MSR800 |
|---|---|
| Flight time | N/A |
| Altitude | 41000 |
| Route | BUBLI DCT LUVAL DCT SHARA DCT DEVDI DCT RIPUS DCT RESIA DCT IXONA DCT SAL DCT UVODI DCT AMUGO DCT VAKSU DCT KOFER DCT PINDO DCT PIKOS DCT KEA UN132 KUPIS DCT LAPSO UN132 KUMBI L612 BLT |
| Aircraft | A359/H-SDE2E3GHIJ3J4J5LM1ORWXY/LB1D1 |
Departure
| Time | 2026-05-08 19:37 |
|---|---|
| Airport | Charles de Gaulle International Airport (LFPG) |
Arrival
| Time | N/A |
|---|---|
| Airport | Cairo International Airport (HECA) |
| Time | Latitude | Longitude | Altitude | Speed | Heading |
|---|---|---|---|---|---|
| 2026-05-08 18:43 | 49.01428 | 2.54603 | 367 ft | 0 kts | 275° |
| 2026-05-08 18:47 | 49.01427 | 2.54622 | 367 ft | 0 kts | 275° |
| 2026-05-08 19:14 | 49.01426 | 2.54634 | 360 ft | 4 kts | 277° |
| 2026-05-08 19:14 | 49.01420 | 2.54674 | 361 ft | 4 kts | 292° |
| 2026-05-08 19:15 | 49.01408 | 2.54708 | 365 ft | 4 kts | 312° |
| 2026-05-08 19:15 | 49.01387 | 2.54732 | 365 ft | 4 kts | 343° |
| 2026-05-08 19:15 | 49.01370 | 2.54736 | 365 ft | 0 kts | 8° |
| 2026-05-08 19:25 | 49.01375 | 2.54737 | 366 ft | 6 kts | 8° |
| 2026-05-08 19:25 | 49.01449 | 2.54748 | 364 ft | 9 kts | 1° |
| 2026-05-08 19:26 | 49.01521 | 2.54737 | 367 ft | 11 kts | 349° |
| 2026-05-08 19:26 | 49.01598 | 2.54694 | 369 ft | 13 kts | 336° |
| 2026-05-08 19:26 | 49.01676 | 2.54621 | 367 ft | 14 kts | 319° |
| 2026-05-08 19:26 | 49.01723 | 2.54549 | 367 ft | 15 kts | 310° |
| 2026-05-08 19:27 | 49.01778 | 2.54413 | 368 ft | 0 kts | 298° |
| 2026-05-08 19:29 | 49.01800 | 2.54355 | 369 ft | 14 kts | 310° |
| 2026-05-08 19:29 | 49.01882 | 2.54334 | 366 ft | 12 kts | 15° |
| 2026-05-08 19:29 | 49.01912 | 2.54427 | 363 ft | 10 kts | 83° |
| 2026-05-08 19:30 | 49.01921 | 2.54545 | 364 ft | 12 kts | 84° |
| 2026-05-08 19:30 | 49.01930 | 2.54683 | 367 ft | 14 kts | 84° |
| 2026-05-08 19:30 | 49.01913 | 2.54826 | 366 ft | 14 kts | 129° |
| 2026-05-08 19:30 | 49.01826 | 2.54855 | 368 ft | 13 kts | 175° |
| 2026-05-08 19:31 | 49.01709 | 2.54870 | 367 ft | 24 kts | 175° |
| 2026-05-08 19:31 | 49.01517 | 2.54895 | 364 ft | 29 kts | 175° |
| 2026-05-08 19:31 | 49.01316 | 2.54952 | 367 ft | 30 kts | 165° |
| 2026-05-08 19:31 | 49.01120 | 2.55035 | 368 ft | 21 kts | 168° |
| 2026-05-08 19:32 | 49.01028 | 2.55076 | 368 ft | 14 kts | 163° |
| 2026-05-08 19:32 | 49.00925 | 2.55122 | 367 ft | 16 kts | 163° |
| 2026-05-08 19:32 | 49.00810 | 2.55174 | 368 ft | 18 kts | 163° |
| 2026-05-08 19:32 | 49.00683 | 2.55227 | 367 ft | 20 kts | 165° |
| 2026-05-08 19:33 | 49.00549 | 2.55289 | 368 ft | 21 kts | 164° |
| 2026-05-08 19:33 | 49.00407 | 2.55349 | 365 ft | 22 kts | 164° |
| 2026-05-08 19:33 | 49.00255 | 2.55415 | 367 ft | 23 kts | 164° |
| 2026-05-08 19:33 | 49.00094 | 2.55485 | 365 ft | 23 kts | 164° |
| 2026-05-08 19:34 | 49.00024 | 2.55511 | 367 ft | 10 kts | 165° |
| 2026-05-08 19:34 | 48.99948 | 2.55549 | 366 ft | 12 kts | 154° |
| 2026-05-08 19:34 | 48.99875 | 2.55628 | 369 ft | 14 kts | 131° |
| 2026-05-08 19:34 | 48.99855 | 2.55672 | 369 ft | 0 kts | 121° |
| 2026-05-08 19:35 | 48.99854 | 2.55674 | 369 ft | 2 kts | 121° |
| 2026-05-08 19:35 | 48.99815 | 2.55756 | 366 ft | 9 kts | 141° |
| 2026-05-08 19:36 | 48.99752 | 2.55794 | 364 ft | 10 kts | 168° |
| 2026-05-08 19:36 | 48.99674 | 2.55817 | 368 ft | 13 kts | 170° |
| 2026-05-08 19:36 | 48.99611 | 2.55893 | 365 ft | 12 kts | 107° |
| 2026-05-08 19:36 | 48.99610 | 2.56019 | 360 ft | 12 kts | 86° |
| 2026-05-08 19:37 | 48.99625 | 2.56304 | 370 ft | 57 kts | 85° |
| 2026-05-08 19:37 | 48.99676 | 2.57274 | 361 ft | 124 kts | 85° |
| 2026-05-08 19:37 | 48.99760 | 2.58853 | 388 ft | 175 kts | 84° |
| 2026-05-08 19:37 | 48.99805 | 2.60574 | 1395 ft | 149 kts | 85° |
| 2026-05-08 19:38 | 48.99893 | 2.62127 | 2155 ft | 151 kts | 84° |
| 2026-05-08 19:38 | 49.00004 | 2.63866 | 2445 ft | 183 kts | 84° |
| 2026-05-08 19:38 | 49.00130 | 2.65979 | 2773 ft | 215 kts | 85° |
| 2026-05-08 19:38 | 49.00263 | 2.68399 | 3233 ft | 239 kts | 85° |
| 2026-05-08 19:39 | 49.00402 | 2.70976 | 4023 ft | 247 kts | 85° |
| 2026-05-08 19:39 | 49.00543 | 2.73595 | 4814 ft | 255 kts | 86° |
| 2026-05-08 19:39 | 49.00663 | 2.76336 | 5547 ft | 262 kts | 89° |
| 2026-05-08 19:39 | 49.00524 | 2.79140 | 6302 ft | 269 kts | 99° |
| 2026-05-08 19:40 | 49.00240 | 2.81991 | 7068 ft | 275 kts | 100° |
| 2026-05-08 19:40 | 48.99943 | 2.84893 | 7885 ft | 280 kts | 100° |
| 2026-05-08 19:40 | 48.99645 | 2.87853 | 8724 ft | 287 kts | 100° |
| 2026-05-08 19:40 | 48.99342 | 2.90881 | 9567 ft | 292 kts | 100° |
| 2026-05-08 19:41 | 48.99027 | 2.93976 | 10342 ft | 300 kts | 101° |
| 2026-05-08 19:41 | 48.98450 | 2.97125 | 10761 ft | 319 kts | 114° |
| 2026-05-08 19:41 | 48.97575 | 3.00147 | 11131 ft | 338 kts | 116° |
| 2026-05-08 19:41 | 48.96564 | 3.03480 | 11614 ft | 354 kts | 116° |
| 2026-05-08 19:42 | 48.95543 | 3.06880 | 12319 ft | 361 kts | 116° |
| 2026-05-08 19:42 | 48.94488 | 3.10414 | 13049 ft | 369 kts | 116° |
| 2026-05-08 19:42 | 48.93451 | 3.13888 | 13768 ft | 375 kts | 116° |
| 2026-05-08 19:42 | 48.92372 | 3.17505 | 14478 ft | 380 kts | 115° |
| 2026-05-08 19:43 | 48.91271 | 3.21190 | 15139 ft | 385 kts | 115° |
| 2026-05-08 19:43 | 48.90154 | 3.24928 | 15850 ft | 389 kts | 115° |
| 2026-05-08 19:43 | 48.89026 | 3.28696 | 16556 ft | 394 kts | 115° |
| 2026-05-08 19:43 | 48.87881 | 3.32515 | 17243 ft | 398 kts | 115° |
| 2026-05-08 19:44 | 48.86818 | 3.36432 | 17953 ft | 403 kts | 112° |
| 2026-05-08 19:44 | 48.85800 | 3.40404 | 18637 ft | 407 kts | 111° |
| 2026-05-08 19:44 | 48.84774 | 3.44471 | 19208 ft | 414 kts | 111° |
| 2026-05-08 19:44 | 48.83748 | 3.48586 | 19803 ft | 420 kts | 110° |
| 2026-05-08 19:45 | 48.82723 | 3.52715 | 20409 ft | 425 kts | 110° |
| 2026-05-08 19:45 | 48.81661 | 3.57005 | 21010 ft | 431 kts | 109° |
| 2026-05-08 19:45 | 48.80617 | 3.61219 | 21613 ft | 436 kts | 109° |
| 2026-05-08 19:45 | 48.79539 | 3.65561 | 22190 ft | 442 kts | 109° |
| 2026-05-08 19:46 | 48.78449 | 3.69942 | 22768 ft | 447 kts | 109° |
| 2026-05-08 19:46 | 48.77335 | 3.74406 | 23354 ft | 453 kts | 109° |
| 2026-05-08 19:46 | 48.75075 | 3.83425 | 24347 ft | 463 kts | 109° |
| 2026-05-08 19:47 | 48.73933 | 3.87969 | 24854 ft | 466 kts | 109° |
| 2026-05-08 19:47 | 48.72769 | 3.92584 | 25367 ft | 470 kts | 109° |
| 2026-05-08 19:47 | 48.71597 | 3.97227 | 25849 ft | 474 kts | 109° |
| 2026-05-08 19:47 | 48.70411 | 4.01910 | 26283 ft | 477 kts | 109° |
| 2026-05-08 19:48 | 48.69219 | 4.06613 | 26775 ft | 481 kts | 109° |
| 2026-05-08 19:48 | 48.68010 | 4.11370 | 27279 ft | 485 kts | 109° |
| 2026-05-08 19:48 | 48.66792 | 4.16154 | 27770 ft | 489 kts | 109° |
| 2026-05-08 19:48 | 48.65554 | 4.21004 | 28258 ft | 493 kts | 109° |
| 2026-05-08 19:49 | 48.64329 | 4.25794 | 28717 ft | 497 kts | 109° |
| 2026-05-08 19:49 | 48.63078 | 4.30679 | 29181 ft | 501 kts | 109° |
| 2026-05-08 19:49 | 48.61810 | 4.35613 | 29596 ft | 506 kts | 109° |
| 2026-05-08 19:49 | 48.60518 | 4.40636 | 29873 ft | 513 kts | 109° |
| 2026-05-08 19:50 | 48.59237 | 4.45606 | 30284 ft | 516 kts | 109° |
| 2026-05-08 19:50 | 48.57954 | 4.50568 | 30668 ft | 519 kts | 109° |
| 2026-05-08 19:50 | 48.56657 | 4.55575 | 31053 ft | 521 kts | 109° |
| 2026-05-08 19:50 | 48.55330 | 4.60688 | 31405 ft | 522 kts | 110° |
| 2026-05-08 19:51 | 48.53997 | 4.65814 | 31792 ft | 524 kts | 110° |
| 2026-05-08 19:51 | 48.52656 | 4.70951 | 32105 ft | 527 kts | 110° |